Sun Universe — 3FOQ4 — position and weather

sailwx.info

Track history (hours):
 
Tides and Currents Weather Stations Pressure Air Temp Water Temp Dewpoint Dewpoint Depression Visibility Wind Speed Wind Dir Waves Ship Positions

Sun Universe

Last reported at 2015-Feb-28 15:22 UTC. Time now 2015-Mar-01 00:33 UTC.
Position N 22°02' E 114°09'.

Length 116 m; draft 9.1 m.

Type: Cargo ship. MMSI: 371647000.

Date/timePositionNaut miles runAvg speedWind from/ knotsBaromVisibWave heightAir tempDewpointWater temp
2015-Feb-28 15:22N 22°02' E 114°09'0 0.0
2015-Feb-28 13:16N 22°02' E 114°09'  
2015-Feb-25 22:08N 23°27' E 117°40'1212.7
2015-Feb-25 21:13N 23°35' E 117°49'812.5
2015-Feb-25 20:33N 23°41' E 117°56'1312.3
2015-Feb-25 19:31N 23°49' E 118°07'1212.0
2015-Feb-25 18:33N 23°57' E 118°16'1511.4
2015-Feb-25 17:16N 24°07' E 118°28'2011.4
2015-Feb-25 15:32N 24°20' E 118°44'1411.5
2015-Feb-25 14:19N 24°29' E 118°56'911.8
2015-Feb-25 13:33N 24°35' E 119°04'1311.7
2015-Feb-25 12:28N 24°43' E 119°14'1211.9
2015-Feb-25 11:29N 24°51' E 119°23'  
Track history (hours):
 
Tides and Currents Weather Stations Pressure Air Temp Water Temp Dewpoint Dewpoint Depression Visibility Wind Speed Wind Dir Waves Ship Positions

Sun Universe

Last reported at 2015-Feb-28 15:22 UTC. Time now 2015-Mar-01 00:33 UTC.
Position N 22°02' E 114°09'.

Length 116 m; draft 9.1 m.

Type: Cargo ship. MMSI: 371647000.

Date/timePositionNaut miles runAvg speedWind from/ knotsBaromVisibWave heightAir tempDewpointWater temp
2015-Feb-28 15:22N 22°02' E 114°09'0 0.0
2015-Feb-28 13:16N 22°02' E 114°09'  
2015-Feb-25 22:08N 23°27' E 117°40'1212.7
2015-Feb-25 21:13N 23°35' E 117°49'812.5
2015-Feb-25 20:33N 23°41' E 117°56'1312.3
2015-Feb-25 19:31N 23°49' E 118°07'1212.0
2015-Feb-25 18:33N 23°57' E 118°16'1511.4
2015-Feb-25 17:16N 24°07' E 118°28'2011.4
2015-Feb-25 15:32N 24°20' E 118°44'1411.5
2015-Feb-25 14:19N 24°29' E 118°56'911.8
2015-Feb-25 13:33N 24°35' E 119°04'1311.7
2015-Feb-25 12:28N 24°43' E 119°14'1211.9
2015-Feb-25 11:29N 24°51' E 119°23'  

Dump ship's entire track history